Time;durP1;ratioP1;P1;durP2;ratioP2;P2;SDS_P1;SDS_P2;PMS_P1;PMS_P2;Temp;Humidity;BMP_temperature;BMP_pressure;BME280_temperature;BME280_humidity;BME280_pressure;Samples;Min_cycle;Max_cycle;Signal;HPM_P1;HPM_P2
2023/07/18 00:01:27;;;;;;;5.10;2.35;;;20.80;99.90;;;;;;2586758;54;20880;31
2023/07/18 00:04:05;;;;;;;4.93;2.53;;;20.70;99.90;;;;;;2586476;54;20101;31
2023/07/18 00:06:46;;;;;;;5.05;2.40;;;20.80;99.90;;;;;;2605312;46;21005;31
2023/07/18 00:09:22;;;;;;;4.80;2.05;;;20.80;99.90;;;;;;2586259;54;20213;31
2023/07/18 00:11:59;;;;;;;6.10;2.80;;;20.80;99.90;;;;;;2684285;39;21672;31
2023/07/18 00:14:38;;;;;;;5.80;2.10;;;20.80;99.90;;;;;;2684280;39;21635;31
2023/07/18 00:17:12;;;;;;;3.75;2.20;;;20.80;99.90;;;;;;2586582;54;20026;31
2023/07/18 00:19:50;;;;;;;7.30;2.60;;;20.80;99.90;;;;;;2604937;46;20054;31
2023/07/18 00:22:26;;;;;;;5.65;2.55;;;20.80;99.90;;;;;;2586762;54;20875;31
2023/07/18 00:25:04;;;;;;;6.55;3.03;;;20.80;99.90;;;;;;2586673;54;21716;31
2023/07/18 00:27:41;;;;;;;4.57;2.40;;;20.80;99.90;;;;;;2586695;54;20032;31
2023/07/18 00:30:20;;;;;;;8.20;2.55;;;20.80;99.90;;;;;;2586564;54;20027;31
2023/07/18 00:33:00;;;;;;;5.38;2.47;;;20.70;99.90;;;;;;2586548;54;20520;31
2023/07/18 00:35:37;;;;;;;6.00;2.90;;;20.70;99.90;;;;;;2684321;39;21627;31
2023/07/18 00:38:15;;;;;;;4.95;2.58;;;20.60;99.90;;;;;;2586580;54;20250;31
2023/07/18 00:40:51;;;;;;;5.50;2.80;;;20.60;99.90;;;;;;2684325;39;21557;31
2023/07/18 00:43:24;;;;;;;6.95;3.03;;;20.60;99.90;;;;;;2600088;46;20273;31
2023/07/18 00:46:04;;;;;;;6.25;2.60;;;20.60;99.90;;;;;;2586643;54;20022;31
2023/07/18 00:48:38;;;;;;;5.47;2.53;;;20.50;99.90;;;;;;2586416;54;20162;31
2023/07/18 00:51:13;;;;;;;7.35;2.80;;;20.40;99.90;;;;;;2586345;54;20032;31
2023/07/18 00:53:48;;;;;;;7.32;2.45;;;20.30;99.90;;;;;;2586637;54;20022;31
2023/07/18 00:56:28;;;;;;;7.17;2.97;;;20.30;99.90;;;;;;2586683;54;20841;31
2023/07/18 00:59:07;;;;;;;6.38;2.50;;;20.20;99.90;;;;;;2586452;54;20033;31
2023/07/18 01:01:44;;;;;;;8.48;2.20;;;20.00;99.90;;;;;;2604847;46;20023;31
2023/07/18 01:04:19;;;;;;;5.10;2.55;;;19.90;99.90;;;;;;2586222;54;20034;31
2023/07/18 01:06:57;;;;;;;6.00;2.27;;;19.80;99.90;;;;;;2586555;54;20026;31
2023/07/18 01:09:35;;;;;;;3.40;2.20;;;19.80;99.90;;;;;;2684039;39;20609;31
2023/07/18 01:12:12;;;;;;;4.23;2.30;;;19.70;99.90;;;;;;2604796;46;20108;31
2023/07/18 01:14:50;;;;;;;4.30;2.00;;;19.60;99.90;;;;;;2586138;54;20788;31
2023/07/18 01:17:29;;;;;;;5.20;2.30;;;19.60;99.90;;;;;;2586357;54;20827;31
2023/07/18 01:20:05;;;;;;;5.43;2.63;;;19.50;99.90;;;;;;2586075;54;20978;31
2023/07/18 01:22:53;;;;;;;6.95;2.45;;;19.50;99.90;;;;;;2586666;54;20724;31
2023/07/18 01:28:00;;;;;;;4.22;2.67;;;19.30;99.90;;;;;;2586148;54;20026;31
2023/07/18 01:30:40;;;;;;;4.63;2.08;;;19.30;99.90;;;;;;2604684;46;20871;31
2023/07/18 01:33:13;;;;;;;5.45;2.90;;;19.20;99.90;;;;;;2604701;46;20026;31
2023/07/18 01:35:49;;;;;;;5.57;2.55;;;19.20;99.90;;;;;;2586161;54;20087;31
2023/07/18 01:38:29;;;;;;;6.03;2.63;;;19.10;99.90;;;;;;2702730;39;21554;31
2023/07/18 01:41:07;;;;;;;4.65;2.30;;;19.00;99.90;;;;;;2684128;39;20450;31
2023/07/18 01:43:48;;;;;;;3.65;2.25;;;18.90;99.90;;;;;;2586328;54;20630;31
2023/07/18 01:46:27;;;;;;;4.43;2.25;;;18.90;99.90;;;;;;2604891;46;20085;31
2023/07/18 01:49:06;;;;;;;5.47;2.28;;;18.80;99.90;;;;;;2604634;46;20089;31
2023/07/18 01:51:42;;;;;;;3.70;2.25;;;18.70;99.90;;;;;;2586275;54;20026;31
2023/07/18 01:54:21;;;;;;;4.60;2.80;;;18.70;99.90;;;;;;2586418;54;20046;31
2023/07/18 01:57:00;;;;;;;3.95;2.00;;;18.60;99.90;;;;;;2586380;54;20892;31
2023/07/18 01:59:36;;;;;;;4.97;2.63;;;18.60;99.90;;;;;;2604494;46;20879;31
2023/07/18 02:02:14;;;;;;;4.93;2.00;;;18.50;99.90;;;;;;2586465;54;20026;31
2023/07/18 02:04:51;;;;;;;6.30;2.28;;;18.50;99.90;;;;;;2586285;54;20728;31
2023/07/18 02:07:27;;;;;;;4.65;2.05;;;18.40;99.90;;;;;;2603831;46;20991;31
2023/07/18 02:10:04;;;;;;;3.77;2.10;;;18.30;99.90;;;;;;2586290;54;20866;31
2023/07/18 02:12:38;;;;;;;5.68;2.50;;;18.30;99.90;;;;;;2585372;54;20026;31
2023/07/18 02:15:16;;;;;;;7.90;2.70;;;18.30;99.90;;;;;;2586090;54;20874;31
2023/07/18 02:17:52;;;;;;;6.10;2.37;;;18.30;99.90;;;;;;2586190;54;21129;31
2023/07/18 02:20:27;;;;;;;6.03;2.40;;;18.20;99.90;;;;;;2586172;54;20309;31
2023/07/18 02:23:03;;;;;;;6.15;1.90;;;18.20;99.90;;;;;;2586176;54;20853;31
2023/07/18 02:25:43;;;;;;;7.77;2.17;;;18.10;99.90;;;;;;2585875;54;20214;31
2023/07/18 02:28:21;;;;;;;5.47;2.20;;;18.10;99.90;;;;;;2684019;39;20742;31
2023/07/18 02:30:57;;;;;;;3.90;2.50;;;18.00;99.90;;;;;;2586150;54;20102;31
2023/07/18 02:33:33;;;;;;;4.82;2.45;;;17.90;99.90;;;;;;2586193;54;20074;31
2023/07/18 02:36:13;;;;;;;3.95;2.10;;;17.80;99.90;;;;;;2585152;54;21654;31
2023/07/18 02:38:49;;;;;;;6.40;2.27;;;17.70;99.90;;;;;;2585250;54;20040;31
2023/07/18 02:41:26;;;;;;;;;;;17.70;99.90;;;;;;2586390;54;20976;31
2023/07/18 02:44:05;;;;;;;3.85;2.30;;;17.70;99.90;;;;;;2586186;54;20854;31
2023/07/18 02:46:44;;;;;;;5.13;2.28;;;17.60;99.90;;;;;;2586145;54;20901;31
2023/07/18 02:49:21;;;;;;;3.67;2.00;;;17.60;99.90;;;;;;2586498;54;20026;31
2023/07/18 02:52:01;;;;;;;5.20;2.30;;;17.60;99.90;;;;;;2683927;39;21728;31
2023/07/18 02:54:36;;;;;;;3.63;2.20;;;17.50;99.90;;;;;;2586122;54;20031;31
2023/07/18 02:57:12;;;;;;;4.10;2.50;;;17.50;99.90;;;;;;2585250;54;20871;31
2023/07/18 02:59:49;;;;;;;3.60;1.75;;;17.50;99.90;;;;;;2585854;54;21225;31
2023/07/18 03:02:30;;;;;;;5.22;2.67;;;17.40;99.90;;;;;;2585912;54;20053;31
2023/07/18 03:05:04;;;;;;;5.93;2.53;;;17.40;99.90;;;;;;2585871;54;20057;31
2023/07/18 03:07:38;;;;;;;4.70;2.72;;;17.30;99.90;;;;;;2604197;47;20026;31
2023/07/18 03:10:15;;;;;;;3.05;2.17;;;17.20;99.90;;;;;;2586365;54;20027;31
2023/07/18 03:12:53;;;;;;;5.90;2.83;;;17.20;99.90;;;;;;2586709;54;20027;31
2023/07/18 03:15:28;;;;;;;7.38;2.10;;;17.10;99.90;;;;;;2586757;54;20254;31
2023/07/18 03:18:09;;;;;;;;;;;17.00;99.90;;;;;;2587317;54;20885;31
2023/07/18 03:20:45;;;;;;;6.40;2.40;;;17.00;99.90;;;;;;2586570;54;19934;31
2023/07/18 03:23:21;;;;;;;4.47;2.78;;;16.90;99.90;;;;;;2586988;54;20787;31
2023/07/18 03:25:59;;;;;;;4.28;2.50;;;16.90;99.90;;;;;;2684233;39;21568;31
2023/07/18 03:28:33;;;;;;;5.53;2.58;;;16.80;99.90;;;;;;2587010;54;20030;31
2023/07/18 03:31:12;;;;;;;4.95;2.72;;;16.90;99.90;;;;;;2605260;46;20026;31
2023/07/18 03:33:51;;;;;;;8.60;3.25;;;16.90;99.90;;;;;;2605368;46;20903;31
2023/07/18 03:36:28;;;;;;;4.53;2.55;;;16.80;99.90;;;;;;2586830;54;20881;31
2023/07/18 03:39:05;;;;;;;4.85;2.65;;;16.90;99.90;;;;;;2586783;54;20086;31
2023/07/18 03:41:41;;;;;;;7.05;2.40;;;17.00;99.90;;;;;;2586778;54;20033;31
2023/07/18 03:44:19;;;;;;;6.35;3.10;;;17.10;99.90;;;;;;2605413;46;20925;31
2023/07/18 03:46:55;;;;;;;4.78;2.40;;;17.10;99.90;;;;;;2586743;54;20022;31
2023/07/18 03:49:50;;;;;;;5.53;2.60;;;17.30;99.90;;;;;;2586254;54;19934;31
2023/07/18 03:52:26;;;;;;;6.65;2.45;;;17.40;99.90;;;;;;2586670;54;21702;31
2023/07/18 03:55:03;;;;;;;6.00;2.60;;;17.50;99.90;;;;;;2586067;54;20026;31
2023/07/18 03:57:42;;;;;;;5.10;2.43;;;17.60;99.90;;;;;;2586697;54;20030;31
2023/07/18 04:00:17;;;;;;;5.30;2.73;;;17.70;99.90;;;;;;2586452;54;20026;31
2023/07/18 04:02:57;;;;;;;4.55;2.65;;;17.90;99.90;;;;;;2586809;54;21030;31
2023/07/18 04:05:40;;;;;;;4.35;2.08;;;18.00;99.90;;;;;;2586869;54;20030;31
2023/07/18 04:08:18;;;;;;;5.07;2.53;;;18.10;99.90;;;;;;2586544;54;20846;31
2023/07/18 04:10:51;;;;;;;7.27;2.77;;;18.20;99.90;;;;;;2586813;54;20033;31
2023/07/18 04:13:28;;;;;;;5.97;2.40;;;18.40;99.90;;;;;;2586557;54;20967;31
2023/07/18 04:16:05;;;;;;;3.30;2.25;;;18.50;99.90;;;;;;2586868;54;20026;31
2023/07/18 04:18:39;;;;;;;5.47;2.13;;;18.70;99.90;;;;;;2586542;54;20810;31
2023/07/18 04:21:23;;;;;;;9.00;2.67;;;18.80;99.90;;;;;;2586233;54;20030;31
2023/07/18 04:23:58;;;;;;;5.20;2.60;;;18.90;99.90;;;;;;2585595;54;20101;31
2023/07/18 04:26:36;;;;;;;9.88;2.88;;;19.10;99.90;;;;;;2586360;54;20037;31
2023/07/18 04:29:18;;;;;;;3.25;1.90;;;19.30;99.90;;;;;;2586672;54;20030;31
2023/07/18 04:31:57;;;;;;;7.13;2.60;;;19.50;99.90;;;;;;2684370;39;21681;31
2023/07/18 04:34:39;;;;;;;6.53;2.70;;;19.70;99.90;;;;;;2586499;54;20301;31
2023/07/18 04:37:23;;;;;;;5.80;2.45;;;19.80;99.90;;;;;;2586496;54;20314;31
2023/07/18 04:39:59;;;;;;;3.35;2.30;;;20.00;99.90;;;;;;2586526;54;20022;31
2023/07/18 04:42:37;;;;;;;6.45;2.25;;;20.10;99.90;;;;;;2586610;54;20518;31
2023/07/18 04:45:12;;;;;;;6.77;2.57;;;20.20;99.90;;;;;;2586514;54;20870;31
2023/07/18 04:47:48;;;;;;;5.00;2.47;;;20.40;99.90;;;;;;2586672;54;20235;31
2023/07/18 04:50:25;;;;;;;4.30;2.10;;;20.30;99.90;;;;;;2586797;54;21324;31
2023/07/18 04:53:08;;;;;;;5.80;2.35;;;20.60;99.90;;;;;;2586446;54;20030;31
2023/07/18 04:55:45;;;;;;;4.65;2.30;;;20.80;99.90;;;;;;2604953;46;20037;31
2023/07/18 04:58:23;;;;;;;7.20;2.33;;;21.00;99.90;;;;;;2586349;54;20038;31
2023/07/18 05:01:02;;;;;;;5.70;2.25;;;21.20;99.90;;;;;;2586435;54;20033;31
2023/07/18 05:03:36;;;;;;;8.98;2.75;;;21.40;99.90;;;;;;2604983;46;20089;31
2023/07/18 05:06:33;;;;;;;5.97;2.95;;;21.50;99.90;;;;;;2586441;54;20033;31
2023/07/18 05:09:11;;;;;;;4.00;2.10;;;21.50;99.90;;;;;;2586448;54;20049;31
2023/07/18 05:11:49;;;;;;;5.50;2.70;;;21.60;99.90;;;;;;2586677;54;20022;31
2023/07/18 05:14:24;;;;;;;8.10;2.37;;;21.80;99.90;;;;;;2593118;46;20057;31
2023/07/18 05:17:02;;;;;;;4.90;2.20;;;21.90;99.90;;;;;;2586408;54;20878;31
2023/07/18 05:19:38;;;;;;;4.80;2.40;;;22.00;99.90;;;;;;2604836;46;20848;31
2023/07/18 05:22:17;;;;;;;4.30;2.05;;;22.10;99.90;;;;;;2604907;46;20249;31
2023/07/18 05:24:51;;;;;;;3.92;2.15;;;22.30;99.90;;;;;;2586399;54;20030;31
2023/07/18 05:27:30;;;;;;;6.40;2.20;;;22.40;99.90;;;;;;2586714;54;20026;31
2023/07/18 05:30:04;;;;;;;5.87;2.20;;;22.60;99.90;;;;;;2586201;54;20079;31
2023/07/18 05:32:41;;;;;;;4.13;2.33;;;22.70;99.90;;;;;;2586226;54;20034;31
2023/07/18 05:35:18;;;;;;;4.90;2.10;;;22.80;99.90;;;;;;2604686;46;20149;31
2023/07/18 05:37:56;;;;;;;3.10;1.90;;;23.00;99.90;;;;;;2684054;39;21638;31
2023/07/18 05:40:31;;;;;;;5.40;1.80;;;23.10;99.90;;;;;;2586653;54;20771;31
2023/07/18 05:43:14;;;;;;;7.90;2.20;;;23.20;99.90;;;;;;2586420;54;19990;31
2023/07/18 05:45:50;;;;;;;3.80;2.20;;;23.30;99.90;;;;;;2586116;54;20036;31
2023/07/18 05:48:27;;;;;;;4.27;1.83;;;23.40;99.90;;;;;;2586420;54;20034;31
2023/07/18 05:51:04;;;;;;;5.80;1.90;;;23.50;99.90;;;;;;2586425;54;20378;31
2023/07/18 05:53:42;;;;;;;2.78;1.60;;;23.70;99.90;;;;;;2604898;46;20882;31
2023/07/18 05:56:17;;;;;;;3.50;1.70;;;24.00;99.90;;;;;;2586268;54;20855;31
2023/07/18 05:59:06;;;;;;;5.20;1.85;;;24.10;99.90;;;;;;2586184;54;20022;31
2023/07/18 06:01:49;;;;;;;6.73;1.60;;;24.30;99.90;;;;;;2604281;46;19934;31
2023/07/18 06:04:28;;;;;;;2.85;1.55;;;24.50;99.90;;;;;;2585869;54;20326;31
2023/07/18 06:07:04;;;;;;;2.60;1.90;;;24.50;99.90;;;;;;2585989;54;20969;31
2023/07/18 06:09:42;;;;;;;4.55;1.75;;;24.50;99.90;;;;;;2586333;54;20875;31
2023/07/18 06:12:17;;;;;;;3.58;1.65;;;24.70;99.90;;;;;;2586184;54;20037;31
2023/07/18 06:14:56;;;;;;;3.80;2.05;;;24.80;99.90;;;;;;2586191;54;20026;31
2023/07/18 06:17:35;;;;;;;4.33;1.90;;;25.10;99.90;;;;;;2586579;54;20034;31
2023/07/18 06:20:14;;;;;;;3.30;1.90;;;25.30;99.90;;;;;;2586146;54;21096;31
2023/07/18 06:22:52;;;;;;;3.50;2.20;;;25.30;99.90;;;;;;2586313;54;20026;31
2023/07/18 06:25:28;;;;;;;5.05;2.10;;;25.30;99.90;;;;;;2585702;54;20848;31
2023/07/18 06:28:04;;;;;;;5.10;1.83;;;25.40;99.90;;;;;;2585385;54;20034;31
2023/07/18 06:30:48;;;;;;;3.55;1.50;;;25.60;99.90;;;;;;2586071;54;20781;31
2023/07/18 06:33:22;;;;;;;23.15;3.30;;;25.60;99.90;;;;;;2586208;54;19993;31
2023/07/18 06:36:00;;;;;;;5.90;1.67;;;25.90;99.90;;;;;;2585432;54;20026;31
2023/07/18 06:38:37;;;;;;;2.58;1.42;;;26.00;99.90;;;;;;2586014;54;20763;31
2023/07/18 06:41:12;;;;;;;5.25;1.95;;;26.10;99.90;;;;;;2586200;54;20968;31
2023/07/18 06:43:48;;;;;;;5.43;1.50;;;26.30;99.90;;;;;;2585771;54;20907;31
2023/07/18 06:46:25;;;;;;;2.88;1.70;;;26.40;99.90;;;;;;2585841;54;20175;31
2023/07/18 06:49:00;;;;;;;3.17;1.50;;;26.60;99.90;;;;;;2586031;54;20856;31
2023/07/18 06:51:35;;;;;;;2.55;1.27;;;26.60;99.90;;;;;;2586137;54;20769;31
2023/07/18 06:54:09;;;;;;;3.70;1.70;;;26.70;99.90;;;;;;2586092;54;20976;31
2023/07/18 06:56:47;;;;;;;3.08;1.35;;;26.90;99.90;;;;;;2585766;54;20022;31
2023/07/18 06:59:28;;;;;;;4.82;1.40;;;27.00;99.90;;;;;;2585918;54;19959;31
2023/07/18 07:02:10;;;;;;;4.23;1.73;;;27.10;99.90;;;;;;2586059;54;20033;31
2023/07/18 07:04:44;;;;;;;3.57;1.30;;;27.20;99.90;;;;;;2585698;54;20026;31
2023/07/18 07:07:19;;;;;;;4.07;1.57;;;27.30;99.90;;;;;;2585720;54;20253;31
2023/07/18 07:09:56;;;;;;;4.90;2.20;;;27.50;99.90;;;;;;2585567;54;20951;31
2023/07/18 07:12:30;;;;;;;7.70;1.73;;;27.60;99.70;;;;;;2604309;47;20026;31
2023/07/18 07:15:15;;;;;;;3.75;1.60;;;27.60;99.10;;;;;;2586094;54;20306;31
2023/07/18 07:17:53;;;;;;;2.47;1.38;;;27.70;98.60;;;;;;2604256;47;20954;31
2023/07/18 07:20:30;;;;;;;2.70;1.38;;;27.80;97.90;;;;;;2604404;47;20892;31
2023/07/18 07:23:04;;;;;;;3.40;1.50;;;27.80;97.10;;;;;;2586129;54;20762;31
2023/07/18 07:25:42;;;;;;;3.08;1.30;;;27.90;97.50;;;;;;2586247;54;20843;31
2023/07/18 07:28:19;;;;;;;3.30;1.70;;;27.80;96.00;;;;;;2585994;54;20026;31
2023/07/18 07:30:53;;;;;;;5.72;1.73;;;27.80;96.20;;;;;;2597831;47;20878;31
2023/07/18 07:33:32;;;;;;;3.90;1.40;;;28.00;95.90;;;;;;2585267;54;20035;31
2023/07/18 07:36:10;;;;;;;2.20;1.15;;;28.00;95.50;;;;;;2585421;54;20086;31
2023/07/18 07:38:47;;;;;;;3.43;1.37;;;28.00;95.70;;;;;;2586111;54;20867;31
2023/07/18 07:41:23;;;;;;;3.93;1.40;;;28.20;94.90;;;;;;2586202;54;20878;31
2023/07/18 07:44:01;;;;;;;3.27;1.23;;;28.30;94.40;;;;;;2585944;54;20833;31
2023/07/18 07:46:38;;;;;;;2.28;1.13;;;28.50;93.70;;;;;;2586151;54;20939;31
2023/07/18 07:49:17;;;;;;;2.40;0.98;;;28.50;93.40;;;;;;2585996;54;20078;31
2023/07/18 07:51:52;;;;;;;2.40;1.40;;;28.60;93.50;;;;;;2585873;54;20915;31
2023/07/18 07:54:30;;;;;;;2.63;1.27;;;28.60;91.50;;;;;;2604233;47;20264;31
2023/07/18 07:57:08;;;;;;;3.00;0.95;;;28.50;90.80;;;;;;2586361;54;20053;31
2023/07/18 08:02:30;;;;;;;1.58;0.90;;;28.60;90.30;;;;;;2587065;54;20874;31
2023/07/18 08:05:08;;;;;;;;;;;28.60;88.90;;;;;;2605698;46;20868;31
2023/07/18 08:07:45;;;;;;;2.75;0.90;;;28.70;90.10;;;;;;2586734;54;20659;31
2023/07/18 08:10:21;;;;;;;4.20;1.60;;;28.80;90.10;;;;;;2604359;46;20784;31
2023/07/18 08:12:57;;;;;;;4.23;1.40;;;28.90;90.60;;;;;;2586662;54;20582;31
2023/07/18 08:15:35;;;;;;;5.00;1.75;;;29.00;90.80;;;;;;2604878;46;20238;31
2023/07/18 08:18:09;;;;;;;3.10;1.40;;;29.20;87.70;;;;;;2586607;54;20118;31
2023/07/18 08:20:47;;;;;;;1.73;1.20;;;29.40;88.10;;;;;;2586583;54;20038;31
2023/07/18 08:23:23;;;;;;;3.55;0.98;;;29.40;83.50;;;;;;2605262;46;20826;31
2023/07/18 08:25:59;;;;;;;6.00;0.90;;;29.40;86.90;;;;;;2586888;54;20871;31
2023/07/18 08:28:37;;;;;;;3.10;1.00;;;29.30;86.60;;;;;;2586835;54;20753;31
2023/07/18 08:31:14;;;;;;;4.03;1.40;;;29.50;86.40;;;;;;2586580;54;20937;31
2023/07/18 08:33:51;;;;;;;2.23;1.20;;;29.60;86.10;;;;;;2586497;54;20027;31
2023/07/18 08:36:31;;;;;;;2.03;1.07;;;29.70;82.80;;;;;;2586727;54;20239;31
2023/07/18 08:39:07;;;;;;;1.35;0.90;;;29.80;84.00;;;;;;2586497;54;20026;31
2023/07/18 08:41:45;;;;;;;1.70;0.95;;;29.70;82.20;;;;;;2586751;54;20096;31
2023/07/18 08:44:22;;;;;;;1.58;0.80;;;29.70;79.80;;;;;;2585674;54;20084;31
2023/07/18 08:47:00;;;;;;;3.00;1.30;;;29.70;81.70;;;;;;2586668;54;20089;31
2023/07/18 08:49:36;;;;;;;2.85;1.33;;;29.80;82.20;;;;;;2604488;46;20030;31
2023/07/18 08:52:15;;;;;;;2.37;1.30;;;29.70;82.80;;;;;;2586559;54;20155;31
2023/07/18 08:54:50;;;;;;;4.25;2.20;;;29.90;78.70;;;;;;2586501;54;20038;31
2023/07/18 08:57:27;;;;;;;3.83;1.10;;;29.90;80.40;;;;;;2586618;54;20097;31
2023/07/18 09:00:07;;;;;;;1.90;0.85;;;29.90;80.50;;;;;;2585600;54;20022;31
2023/07/18 09:02:44;;;;;;;2.08;1.00;;;29.90;81.50;;;;;;2604931;46;20277;31
2023/07/18 09:05:34;;;;;;;3.17;0.85;;;29.90;76.60;;;;;;2586242;54;20910;31
2023/07/18 09:08:18;;;;;;;3.87;1.10;;;29.90;78.40;;;;;;2586383;54;20030;31
2023/07/18 09:11:08;;;;;;;2.47;0.90;;;30.00;81.20;;;;;;2586586;54;20250;31
2023/07/18 09:13:41;;;;;;;4.60;1.10;;;30.10;77.10;;;;;;2604902;46;21883;31
2023/07/18 09:16:17;;;;;;;3.80;1.40;;;30.10;75.90;;;;;;2586764;54;20907;31
2023/07/18 09:18:54;;;;;;;2.15;0.90;;;30.00;77.80;;;;;;2605227;46;19934;31
2023/07/18 09:21:27;;;;;;;;;;;30.10;75.70;;;;;;2586830;54;20247;31
2023/07/18 09:24:05;;;;;;;2.10;1.30;;;30.10;76.60;;;;;;2604517;46;19946;31
2023/07/18 09:26:42;;;;;;;1.60;0.90;;;30.10;75.90;;;;;;2586532;54;20056;31
2023/07/18 09:29:20;;;;;;;3.00;1.50;;;30.10;73.70;;;;;;2604668;46;20026;31
2023/07/18 09:31:55;;;;;;;3.90;1.40;;;30.20;75.00;;;;;;2585572;54;20758;31
2023/07/18 09:34:32;;;;;;;2.03;0.70;;;30.30;75.00;;;;;;2586572;54;20085;31
2023/07/18 09:37:08;;;;;;;1.33;1.00;;;30.40;76.30;;;;;;2585568;54;20214;31
2023/07/18 09:39:47;;;;;;;2.08;0.70;;;30.40;73.30;;;;;;2586426;54;20030;31
2023/07/18 09:42:27;;;;;;;1.55;1.20;;;30.60;73.80;;;;;;2586534;54;20882;31
2023/07/18 09:45:02;;;;;;;3.20;1.00;;;30.60;73.30;;;;;;2586525;54;20735;31
2023/07/18 09:47:49;;;;;;;2.25;1.35;;;30.70;74.00;;;;;;2586026;54;20029;31
2023/07/18 09:50:23;;;;;;;1.75;0.88;;;30.60;75.30;;;;;;2593865;46;20957;31
2023/07/18 09:53:00;;;;;;;2.50;1.10;;;30.60;74.80;;;;;;2605021;46;20026;31
2023/07/18 09:55:42;;;;;;;2.80;1.20;;;30.60;72.90;;;;;;2586460;54;20899;31
2023/07/18 09:58:18;;;;;;;3.90;1.23;;;30.60;73.10;;;;;;2586353;54;20043;31
2023/07/18 10:00:55;;;;;;;2.85;1.10;;;30.60;72.50;;;;;;2586216;54;20049;31
2023/07/18 10:03:32;;;;;;;1.50;1.05;;;30.60;73.20;;;;;;2604555;46;20093;31
2023/07/18 10:06:09;;;;;;;4.40;1.15;;;30.60;74.30;;;;;;2586491;54;20874;31
2023/07/18 10:08:46;;;;;;;1.88;0.90;;;30.60;73.70;;;;;;2586310;54;20818;31
2023/07/18 10:11:24;;;;;;;3.13;1.00;;;30.80;72.90;;;;;;2586325;54;20903;31
2023/07/18 10:14:16;;;;;;;2.10;0.80;;;30.80;72.60;;;;;;2604630;46;20027;31
2023/07/18 10:16:59;;;;;;;3.58;1.65;;;30.90;74.00;;;;;;2586411;54;20045;31
2023/07/18 10:19:48;;;;;;;5.05;1.30;;;30.70;73.40;;;;;;2586124;54;20936;31
2023/07/18 10:22:28;;;;;;;4.03;1.20;;;30.80;73.10;;;;;;2585900;54;20023;31
2023/07/18 10:25:08;;;;;;;1.25;0.90;;;31.00;73.90;;;;;;2585976;54;20861;31
2023/07/18 10:27:47;;;;;;;3.28;1.30;;;30.90;71.30;;;;;;2586330;54;20029;31
2023/07/18 10:30:25;;;;;;;4.63;1.25;;;30.80;72.70;;;;;;2605050;46;20895;31
2023/07/18 10:33:01;;;;;;;2.73;0.97;;;30.80;69.80;;;;;;2586286;54;20131;31
2023/07/18 10:35:38;;;;;;;1.85;1.30;;;30.70;69.80;;;;;;2586345;54;21009;31
2023/07/18 10:38:14;;;;;;;1.33;0.93;;;30.60;72.50;;;;;;2586323;54;20774;31
2023/07/18 10:40:52;;;;;;;3.70;1.05;;;30.60;71.10;;;;;;2586299;54;20911;31
2023/07/18 10:43:33;;;;;;;3.88;1.50;;;30.50;71.60;;;;;;2586327;54;20843;31
2023/07/18 10:48:39;;;;;;;2.65;1.20;;;30.50;71.60;;;;;;2586381;54;20046;31
2023/07/18 10:51:16;;;;;;;2.45;1.00;;;30.50;68.50;;;;;;2598448;47;20250;31
2023/07/18 10:53:56;;;;;;;1.42;1.02;;;30.30;68.20;;;;;;2586019;54;20027;31
2023/07/18 10:56:30;;;;;;;3.27;1.00;;;30.20;70.60;;;;;;2585997;54;20035;31
2023/07/18 10:59:08;;;;;;;3.45;1.30;;;30.20;69.20;;;;;;2585225;54;20795;31
2023/07/18 11:01:46;;;;;;;3.00;1.35;;;30.10;69.90;;;;;;2586348;54;20863;31
2023/07/18 11:04:22;;;;;;;2.00;0.93;;;30.00;68.90;;;;;;2604413;47;21729;31
2023/07/18 11:06:59;;;;;;;2.87;1.23;;;30.10;71.20;;;;;;2586089;54;20066;31
2023/07/18 11:09:38;;;;;;;2.30;1.10;;;30.00;68.90;;;;;;2586139;54;20053;31
2023/07/18 11:12:21;;;;;;;4.73;1.40;;;30.00;69.60;;;;;;2683907;39;20490;31
2023/07/18 11:15:06;;;;;;;3.30;1.10;;;30.00;70.10;;;;;;2604618;47;21045;31
2023/07/18 11:17:44;;;;;;;2.23;1.10;;;30.00;69.50;;;;;;2586125;54;20900;31
2023/07/18 11:20:26;;;;;;;1.60;0.80;;;30.00;69.80;;;;;;2586333;54;20992;31
2023/07/18 11:23:03;;;;;;;5.45;0.80;;;29.90;68.20;;;;;;2585362;54;20892;31
2023/07/18 11:25:48;;;;;;;3.63;1.20;;;29.90;68.10;;;;;;2586110;54;20026;31
2023/07/18 11:28:34;;;;;;;4.00;0.70;;;29.80;68.40;;;;;;2604391;47;20974;31
2023/07/18 11:31:29;;;;;;;3.37;0.90;;;29.90;68.60;;;;;;2605191;47;20136;31
2023/07/18 11:34:26;;;;;;;1.50;0.80;;;29.80;69.50;;;;;;2604901;46;21113;31
2023/07/18 11:37:05;;;;;;;3.00;0.95;;;29.90;69.80;;;;;;2587049;54;19941;31
2023/07/18 11:39:45;;;;;;;4.35;1.25;;;29.90;69.10;;;;;;2586847;54;20834;31
2023/07/18 11:42:30;;;;;;;4.18;1.08;;;29.90;68.90;;;;;;2596121;46;20889;31
2023/07/18 11:45:16;;;;;;;3.22;1.13;;;29.80;68.20;;;;;;2586760;54;20033;31
2023/07/18 11:47:57;;;;;;;5.70;1.37;;;29.70;69.80;;;;;;2586737;54;20047;31
2023/07/18 11:50:45;;;;;;;2.90;0.93;;;29.70;69.70;;;;;;2586904;54;20105;31
2023/07/18 11:53:28;;;;;;;1.88;0.90;;;29.70;68.50;;;;;;2605510;46;20029;31
2023/07/18 11:56:09;;;;;;;2.42;1.10;;;29.60;69.80;;;;;;2605016;46;20114;31
2023/07/18 11:58:51;;;;;;;1.80;1.08;;;29.60;68.10;;;;;;2586650;54;20033;31
2023/07/18 12:01:27;;;;;;;3.92;1.00;;;29.70;68.10;;;;;;2585998;54;20835;31
2023/07/18 12:03:59;;;;;;;;;;;29.60;68.40;;;;;;2600973;46;20775;31
2023/07/18 12:07:01;;;;;;;2.27;0.93;;;29.40;70.00;;;;;;2585482;54;20800;31
2023/07/18 12:09:39;;;;;;;2.60;1.15;;;29.50;68.20;;;;;;2605341;46;20085;31
2023/07/18 12:12:35;;;;;;;1.90;0.90;;;29.50;69.80;;;;;;2586649;54;20978;31
2023/07/18 12:15:14;;;;;;;2.30;0.93;;;29.40;69.50;;;;;;2586724;54;20042;31
2023/07/18 12:17:57;;;;;;;3.70;0.90;;;29.30;68.90;;;;;;2684569;39;21575;31
2023/07/18 12:20:33;;;;;;;2.80;0.98;;;29.10;67.10;;;;;;2604518;46;20026;31
2023/07/18 12:23:21;;;;;;;4.05;1.50;;;29.10;67.40;;;;;;2586677;54;20743;31
2023/07/18 12:26:06;;;;;;;1.85;0.95;;;29.10;68.40;;;;;;2585993;54;20243;31
2023/07/18 12:28:44;;;;;;;1.95;1.05;;;29.10;68.50;;;;;;2605041;46;20740;31
2023/07/18 12:31:26;;;;;;;2.30;0.70;;;29.10;68.30;;;;;;2604466;46;20037;31
2023/07/18 12:34:05;;;;;;;2.97;1.10;;;29.00;69.20;;;;;;2586784;54;20898;31
2023/07/18 12:36:41;;;;;;;4.20;1.27;;;29.00;69.40;;;;;;2605330;46;20034;31
2023/07/18 12:39:27;;;;;;;7.47;1.53;;;29.10;68.90;;;;;;2586472;54;20030;31
2023/07/18 12:42:09;;;;;;;2.47;1.23;;;29.10;68.70;;;;;;2586335;54;20023;31
2023/07/18 12:44:51;;;;;;;2.05;1.08;;;29.20;68.50;;;;;;2585643;54;20149;31
2023/07/18 12:47:32;;;;;;;4.53;0.93;;;29.20;67.50;;;;;;2586432;54;20085;31
2023/07/18 12:50:12;;;;;;;1.70;1.00;;;29.20;69.00;;;;;;2586562;54;19934;31
2023/07/18 12:52:52;;;;;;;2.50;0.93;;;29.20;67.60;;;;;;2605049;46;21544;31
2023/07/18 12:55:45;;;;;;;1.52;0.70;;;29.20;67.50;;;;;;2585590;54;20026;31
2023/07/18 12:58:23;;;;;;;2.67;1.00;;;29.10;67.60;;;;;;2585669;54;20052;31
2023/07/18 13:01:05;;;;;;;2.35;0.90;;;29.00;68.70;;;;;;2684431;39;21897;31
2023/07/18 13:03:43;;;;;;;2.65;1.10;;;29.00;69.00;;;;;;2586534;54;20023;31
2023/07/18 13:06:22;;;;;;;3.33;1.30;;;29.00;67.90;;;;;;2586657;54;20839;31
2023/07/18 13:09:00;;;;;;;2.03;0.90;;;29.00;66.60;;;;;;2586439;54;20022;31
2023/07/18 13:11:38;;;;;;;3.30;1.05;;;29.00;68.20;;;;;;2604845;46;20863;31
2023/07/18 13:14:25;;;;;;;3.10;1.10;;;29.00;69.20;;;;;;2586430;54;19940;31
2023/07/18 13:17:03;;;;;;;;;;;29.00;66.40;;;;;;2586913;54;20081;31
2023/07/18 13:19:45;;;;;;;3.45;1.10;;;29.00;68.90;;;;;;2605097;46;20811;31
2023/07/18 13:22:27;;;;;;;1.30;0.65;;;29.00;68.10;;;;;;2585387;54;20279;31
2023/07/18 13:25:03;;;;;;;9.20;1.40;;;29.00;68.00;;;;;;2585593;54;20083;31
2023/07/18 13:27:40;;;;;;;3.10;0.90;;;28.90;68.00;;;;;;2585702;54;20038;31
2023/07/18 13:30:24;;;;;;;2.60;1.20;;;28.90;67.50;;;;;;2605164;46;21142;31
2023/07/18 13:33:00;;;;;;;2.93;1.10;;;28.90;68.80;;;;;;2586385;54;20033;31
2023/07/18 13:35:41;;;;;;;1.65;0.90;;;29.00;67.00;;;;;;2604888;46;20026;31
2023/07/18 13:38:16;;;;;;;3.17;1.10;;;28.80;67.20;;;;;;2586747;54;20817;31
2023/07/18 13:40:56;;;;;;;3.20;1.20;;;28.70;67.20;;;;;;2586233;54;20049;31
2023/07/18 13:43:35;;;;;;;1.67;0.70;;;28.70;68.50;;;;;;2604989;46;20901;31
2023/07/18 13:46:16;;;;;;;2.90;1.10;;;28.60;67.10;;;;;;2586500;54;20030;31
2023/07/18 13:48:52;;;;;;;2.00;1.00;;;28.60;67.60;;;;;;2586321;54;20051;31
2023/07/18 13:51:29;;;;;;;1.40;0.90;;;28.60;66.50;;;;;;2586115;54;21197;31
2023/07/18 13:54:06;;;;;;;1.98;1.08;;;28.60;66.50;;;;;;2604669;46;19934;31
2023/07/18 13:56:42;;;;;;;4.93;1.13;;;28.60;68.40;;;;;;2586071;54;20031;31
2023/07/18 13:59:22;;;;;;;2.10;1.10;;;28.70;67.90;;;;;;2684245;39;21635;31
2023/07/18 14:02:01;;;;;;;1.77;0.80;;;28.70;68.90;;;;;;2604164;46;20026;31
2023/07/18 14:04:41;;;;;;;12.37;1.20;;;28.80;68.30;;;;;;2586088;54;19941;31